createdAt,value
2023-08-11T00:01:30.897Z,29.73
2023-08-11T00:03:58.460Z,14.90
2023-08-11T00:06:26.519Z,8.00
2023-08-11T00:08:56.455Z,7.53
2023-08-11T00:11:23.846Z,7.47
2023-08-11T00:13:50.774Z,7.67
2023-08-11T00:16:17.628Z,7.60
2023-08-11T00:18:44.437Z,20.58
2023-08-11T00:21:11.462Z,13.20
2023-08-11T00:23:40.758Z,9.98
2023-08-11T00:26:07.782Z,9.50
2023-08-11T00:28:34.578Z,9.02
2023-08-11T00:31:01.376Z,8.50
2023-08-11T00:33:28.119Z,7.95
2023-08-11T00:35:54.987Z,7.65
2023-08-11T00:38:27.385Z,6.77
2023-08-11T00:40:54.138Z,7.93
2023-08-11T00:43:20.815Z,9.93
2023-08-11T00:45:50.275Z,16.63
2023-08-11T00:48:17.274Z,11.38
2023-08-11T00:50:44.197Z,7.73
2023-08-11T00:53:11.472Z,7.30
2023-08-11T00:55:38.949Z,6.93
2023-08-11T00:58:07.104Z,7.25
2023-08-11T01:00:34.024Z,7.53
2023-08-11T01:03:00.835Z,8.40
2023-08-11T01:05:31.951Z,11.07
2023-08-11T01:08:35.437Z,12.55
2023-08-11T01:11:18.651Z,9.27
2023-08-11T01:13:53.624Z,7.43
2023-08-11T01:16:23.433Z,7.67
2023-08-11T01:18:51.430Z,7.70
2023-08-11T01:21:18.982Z,7.03
2023-08-11T01:23:45.936Z,7.68
2023-08-11T01:26:12.974Z,10.57
2023-08-11T01:28:41.883Z,12.10
2023-08-11T01:31:09.721Z,8.68
2023-08-11T01:33:36.483Z,8.30
2023-08-11T01:36:03.264Z,9.60
2023-08-11T01:38:30.107Z,8.35
2023-08-11T01:40:58.844Z,8.27
2023-08-11T01:43:27.352Z,8.00
2023-08-11T01:45:54.771Z,7.65
2023-08-11T01:48:22.565Z,10.10
2023-08-11T01:50:49.485Z,7.53
2023-08-11T01:53:16.434Z,9.03
2023-08-11T01:55:44.183Z,8.77
2023-08-11T01:58:11.218Z,7.32
2023-08-11T02:00:37.901Z,7.70
2023-08-11T02:03:04.816Z,8.98
2023-08-11T02:05:31.699Z,7.67
2023-08-11T02:07:59.411Z,7.63
2023-08-11T02:10:26.137Z,8.93
2023-08-11T02:12:52.891Z,7.90
2023-08-11T02:15:20.029Z,9.10
2023-08-11T02:17:46.879Z,7.47
2023-08-11T02:20:23.214Z,8.57
2023-08-11T02:22:51.026Z,7.72
2023-08-11T02:25:18.075Z,7.50
2023-08-11T02:27:45.250Z,8.18
2023-08-11T02:30:12.851Z,9.57
2023-08-11T02:32:41.141Z,7.35
2023-08-11T02:35:08.399Z,9.63
2023-08-11T02:37:35.280Z,13.77
2023-08-11T02:40:02.077Z,9.63
2023-08-11T02:42:28.870Z,8.90
2023-08-11T02:44:55.510Z,7.90
2023-08-11T02:47:22.264Z,9.25
2023-08-11T02:49:49.127Z,10.77
2023-08-11T02:52:16.080Z,8.68
2023-08-11T02:54:43.027Z,11.87
2023-08-11T02:57:09.765Z,10.65
2023-08-11T02:59:36.526Z,9.63
2023-08-11T03:02:03.438Z,10.25
2023-08-11T03:04:30.322Z,8.85
2023-08-11T03:06:57.100Z,8.40
2023-08-11T03:09:23.839Z,8.60
2023-08-11T03:11:50.650Z,8.93
2023-08-11T03:14:18.262Z,8.38
2023-08-11T03:16:45.835Z,8.35
2023-08-11T03:19:12.743Z,9.17
2023-08-11T03:21:39.827Z,8.73
2023-08-11T03:24:07.189Z,8.90
2023-08-11T03:26:34.320Z,8.50
2023-08-11T03:29:01.016Z,10.57
2023-08-11T03:31:27.732Z,9.27
2023-08-11T03:33:54.528Z,9.20
2023-08-11T03:36:21.549Z,9.57
2023-08-11T03:38:49.409Z,10.18
2023-08-11T03:41:16.189Z,11.45
2023-08-11T03:43:42.994Z,8.17
2023-08-11T03:46:09.931Z,8.82
2023-08-11T03:48:36.880Z,8.45
2023-08-11T03:51:03.844Z,10.63
2023-08-11T03:53:35.001Z,10.05
2023-08-11T03:56:01.938Z,8.23
2023-08-11T03:58:28.637Z,9.98
2023-08-11T04:00:56.223Z,10.35
2023-08-11T04:03:23.667Z,9.68
2023-08-11T04:05:50.581Z,11.55
2023-08-11T04:08:18.054Z,10.53
2023-08-11T04:10:44.772Z,13.57
2023-08-11T04:13:11.597Z,10.27
2023-08-11T04:15:40.121Z,10.57
2023-08-11T04:18:06.945Z,9.20
2023-08-11T04:20:34.598Z,8.10
2023-08-11T04:23:01.479Z,8.38
2023-08-11T04:25:28.195Z,8.50
2023-08-11T04:27:56.841Z,8.18
2023-08-11T04:30:24.230Z,9.23
2023-08-11T04:32:51.966Z,9.57
2023-08-11T04:35:18.856Z,9.88
2023-08-11T04:37:45.942Z,8.82
2023-08-11T04:40:15.194Z,8.90
2023-08-11T04:42:42.062Z,10.43
2023-08-11T04:45:10.176Z,9.27
2023-08-11T04:47:37.494Z,10.00
2023-08-11T04:50:04.773Z,10.43
2023-08-11T04:52:31.487Z,10.02
2023-08-11T04:54:58.952Z,8.98
2023-08-11T04:57:25.758Z,9.87
2023-08-11T04:59:52.501Z,9.68
2023-08-11T05:02:19.454Z,10.10
2023-08-11T05:04:46.120Z,8.68
2023-08-11T05:07:12.809Z,9.30
2023-08-11T05:09:39.610Z,9.57
2023-08-11T05:12:06.767Z,11.73
2023-08-11T05:14:33.791Z,9.38
2023-08-11T05:17:03.819Z,12.38
2023-08-11T05:19:32.443Z,9.90
2023-08-11T05:21:59.252Z,9.97
2023-08-11T05:24:26.023Z,8.95
2023-08-11T05:26:52.809Z,10.27
2023-08-11T05:29:19.595Z,9.95
2023-08-11T05:31:46.409Z,9.27
2023-08-11T05:34:13.345Z,9.77
2023-08-11T05:36:40.047Z,10.13
2023-08-11T05:39:09.321Z,9.70
2023-08-11T05:41:36.116Z,9.65
2023-08-11T05:44:02.980Z,10.57
2023-08-11T05:46:32.131Z,8.93
2023-08-11T05:48:58.893Z,9.73
2023-08-11T05:51:25.975Z,9.43
2023-08-11T05:53:54.433Z,11.60
2023-08-11T05:56:21.500Z,12.13
2023-08-11T05:58:48.648Z,9.93
2023-08-11T06:01:15.459Z,10.10
2023-08-11T06:03:42.252Z,11.43
2023-08-11T06:06:09.040Z,11.80
2023-08-11T06:08:35.789Z,15.63
2023-08-11T06:11:02.595Z,12.90
2023-08-11T06:13:29.468Z,10.63
2023-08-11T06:15:56.234Z,10.77
2023-08-11T06:18:23.023Z,7.38
2023-08-11T06:20:50.621Z,6.82
2023-08-11T06:23:18.056Z,8.63
2023-08-11T06:25:44.848Z,7.82
2023-08-11T06:28:11.579Z,7.47
2023-08-11T06:30:38.827Z,7.80
2023-08-11T06:33:06.045Z,7.93
2023-08-11T06:35:33.618Z,9.37
2023-08-11T06:38:00.674Z,7.25
2023-08-11T06:40:27.573Z,7.97
2023-08-11T06:42:54.339Z,7.40
2023-08-11T06:45:21.109Z,6.85
2023-08-11T06:47:47.977Z,9.67
2023-08-11T06:50:14.851Z,9.75
2023-08-11T06:52:41.589Z,7.65
2023-08-11T06:55:08.597Z,8.48
2023-08-11T06:57:36.821Z,10.70
2023-08-11T07:00:05.772Z,10.00
2023-08-11T07:02:32.478Z,7.50
2023-08-11T07:04:59.240Z,8.02
2023-08-11T07:07:26.026Z,8.73
2023-08-11T07:09:52.761Z,7.43
2023-08-11T07:12:19.410Z,10.57
2023-08-11T07:14:46.278Z,8.50
2023-08-11T07:17:13.130Z,8.30
2023-08-11T07:19:40.035Z,8.38
2023-08-11T07:22:06.776Z,8.55
2023-08-11T07:24:33.615Z,6.30
2023-08-11T07:27:00.875Z,6.40
2023-08-11T07:29:27.582Z,6.60
2023-08-11T07:31:54.341Z,7.32
2023-08-11T07:34:21.061Z,5.60
2023-08-11T07:36:48.134Z,5.63
2023-08-11T07:39:22.606Z,6.47
2023-08-11T07:41:50.979Z,5.68
2023-08-11T07:44:18.018Z,6.75
2023-08-11T07:46:44.832Z,6.38
2023-08-11T07:49:11.641Z,6.13
2023-08-11T07:51:40.786Z,4.50
2023-08-11T07:54:07.890Z,6.10
2023-08-11T07:56:35.068Z,5.32
2023-08-11T07:59:01.963Z,6.55
2023-08-11T08:01:29.092Z,7.00
2023-08-11T08:03:57.070Z,4.78
2023-08-11T08:06:23.944Z,5.88
2023-08-11T08:08:50.701Z,5.70
2023-08-11T08:11:17.876Z,6.72
2023-08-11T08:13:44.774Z,7.03
2023-08-11T08:16:11.620Z,5.28
2023-08-11T08:18:38.387Z,7.07
2023-08-11T08:21:05.154Z,4.75
2023-08-11T08:23:31.903Z,4.47
2023-08-11T08:25:58.842Z,5.20
2023-08-11T08:28:25.983Z,4.72
2023-08-11T08:30:53.126Z,5.63
2023-08-11T08:33:19.980Z,4.50
2023-08-11T08:35:46.925Z,5.75
2023-08-11T08:38:13.626Z,4.90
2023-08-11T08:40:41.044Z,5.10
2023-08-11T08:43:09.927Z,4.93
2023-08-11T08:45:38.700Z,4.50
2023-08-11T08:48:09.817Z,5.60
2023-08-11T08:50:38.854Z,4.23
2023-08-11T08:53:05.894Z,5.30
2023-08-11T08:55:33.343Z,5.10
2023-08-11T08:58:01.933Z,6.00
2023-08-11T09:00:29.456Z,7.28
2023-08-11T09:02:57.717Z,4.80
2023-08-11T09:05:25.660Z,6.38
2023-08-11T09:07:52.423Z,4.95
2023-08-11T09:10:19.668Z,4.60
2023-08-11T09:12:46.372Z,5.75
2023-08-11T09:15:13.808Z,4.57
2023-08-11T09:17:41.397Z,4.57
2023-08-11T09:20:11.828Z,4.30
2023-08-11T09:22:39.622Z,4.60
2023-08-11T09:25:07.242Z,5.82
2023-08-11T09:27:34.513Z,5.13
2023-08-11T09:30:01.403Z,4.60
2023-08-11T09:32:28.331Z,5.22
2023-08-11T09:34:55.270Z,5.30
2023-08-11T09:37:22.052Z,5.60
2023-08-11T09:39:57.065Z,4.37
2023-08-11T09:42:27.540Z,5.25
2023-08-11T09:44:54.394Z,5.18
2023-08-11T09:47:23.209Z,4.20
2023-08-11T09:49:50.191Z,5.28
2023-08-11T09:52:18.554Z,6.77
2023-08-11T09:54:45.876Z,4.88
2023-08-11T09:57:14.614Z,4.55
2023-08-11T09:59:45.656Z,4.28
2023-08-11T10:02:18.674Z,4.40
2023-08-11T10:04:58.346Z,3.70
2023-08-11T10:07:35.229Z,4.45
2023-08-11T10:10:09.706Z,4.30
2023-08-11T10:12:41.892Z,3.30
2023-08-11T10:15:12.298Z,3.97
2023-08-11T10:17:39.998Z,4.23
2023-08-11T10:20:08.632Z,4.82
2023-08-11T10:22:35.551Z,5.43
2023-08-11T10:25:05.672Z,4.45
2023-08-11T10:27:32.848Z,3.90
2023-08-11T10:30:00.728Z,4.70
2023-08-11T10:32:32.567Z,4.88
2023-08-11T10:34:59.314Z,3.72
2023-08-11T10:37:36.845Z,3.78
2023-08-11T10:40:08.796Z,3.15
2023-08-11T10:42:40.375Z,3.13
2023-08-11T10:45:15.839Z,3.53
2023-08-11T10:47:53.641Z,2.97
2023-08-11T10:50:22.280Z,3.63
2023-08-11T10:53:05.636Z,3.25
2023-08-11T10:55:37.448Z,3.63
2023-08-11T10:58:15.446Z,6.45
2023-08-11T11:00:42.664Z,3.85
2023-08-11T11:03:10.730Z,4.22
2023-08-11T11:05:37.469Z,3.78
2023-08-11T11:08:04.392Z,4.00
2023-08-11T11:10:43.849Z,5.25
2023-08-11T11:13:15.560Z,5.43
2023-08-11T11:15:42.425Z,5.00
2023-08-11T11:18:09.251Z,4.78
2023-08-11T11:20:35.995Z,5.10
2023-08-11T11:23:03.796Z,5.53
2023-08-11T11:25:30.511Z,5.30
2023-08-11T11:27:57.298Z,6.43
2023-08-11T11:30:24.394Z,4.82
2023-08-11T11:32:51.135Z,4.30
2023-08-11T11:35:18.761Z,4.00
2023-08-11T11:37:45.984Z,5.22
2023-08-11T11:40:13.231Z,5.10
2023-08-11T11:42:40.093Z,4.65
2023-08-11T11:45:08.449Z,6.03
2023-08-11T11:47:35.507Z,4.00
2023-08-11T11:50:08.480Z,4.47
2023-08-11T11:52:37.674Z,4.60
2023-08-11T11:55:07.454Z,4.85
2023-08-11T11:57:35.149Z,4.93
2023-08-11T12:00:04.210Z,5.45
2023-08-11T12:02:31.449Z,4.68
2023-08-11T12:04:58.766Z,5.55
2023-08-11T12:07:33.203Z,4.93
2023-08-11T12:10:00.629Z,3.80
2023-08-11T12:12:28.423Z,5.05
2023-08-11T12:15:02.222Z,5.70
2023-08-11T12:17:36.751Z,5.43
2023-08-11T12:20:11.318Z,4.82
2023-08-11T12:22:38.108Z,5.07
2023-08-11T12:25:05.210Z,4.75
2023-08-11T12:27:32.007Z,6.38
2023-08-11T12:29:58.817Z,5.13
2023-08-11T12:32:25.522Z,6.55
2023-08-11T12:34:52.610Z,4.80
2023-08-11T12:37:19.400Z,6.22
2023-08-11T12:39:46.058Z,4.88
2023-08-11T12:42:13.297Z,5.78
2023-08-11T12:44:40.656Z,5.82
2023-08-11T12:47:07.644Z,6.83
2023-08-11T12:49:34.506Z,8.82
2023-08-11T12:52:01.320Z,6.93
2023-08-11T12:54:27.978Z,9.48
2023-08-11T12:56:54.726Z,6.55
2023-08-11T12:59:21.460Z,5.57
2023-08-11T13:01:48.252Z,6.10
2023-08-11T13:04:15.141Z,6.10
2023-08-11T13:06:41.800Z,5.40
2023-08-11T13:09:08.737Z,4.85
2023-08-11T13:11:35.603Z,4.57
2023-08-11T13:14:03.714Z,4.53
2023-08-11T13:16:30.581Z,6.90
2023-08-11T13:18:57.416Z,4.15
2023-08-11T13:21:24.307Z,4.95
2023-08-11T13:23:51.199Z,6.30
2023-08-11T13:26:18.060Z,5.47
2023-08-11T13:28:44.834Z,4.75
2023-08-11T13:31:11.541Z,4.63
2023-08-11T13:33:39.059Z,5.32
2023-08-11T13:36:06.244Z,5.10
2023-08-11T13:38:33.135Z,5.60
2023-08-11T13:40:59.930Z,4.88
2023-08-11T13:43:26.674Z,6.88
2023-08-11T13:45:54.617Z,5.25
2023-08-11T13:48:24.755Z,4.87
2023-08-11T13:50:52.543Z,4.43
2023-08-11T13:53:19.391Z,4.60
2023-08-11T13:55:46.155Z,5.05
2023-08-11T13:58:13.246Z,6.10
2023-08-11T14:00:40.048Z,4.67
2023-08-11T14:03:07.178Z,4.30
2023-08-11T14:05:34.060Z,5.20
2023-08-11T14:08:00.849Z,5.75
2023-08-11T14:10:27.561Z,4.50
2023-08-11T14:12:54.718Z,4.73
2023-08-11T14:15:21.458Z,5.00
2023-08-11T14:17:48.239Z,4.50
2023-08-11T14:20:15.133Z,6.82
2023-08-11T14:22:41.918Z,4.53
2023-08-11T14:25:08.910Z,5.37
2023-08-11T14:27:35.730Z,6.72
2023-08-11T14:30:02.497Z,5.72
2023-08-11T14:32:29.466Z,5.80
2023-08-11T14:34:56.677Z,5.45
2023-08-11T14:37:23.457Z,4.57
2023-08-11T14:39:50.392Z,6.35
2023-08-11T14:42:17.735Z,4.25
2023-08-11T14:44:44.558Z,5.97
2023-08-11T14:47:15.159Z,5.07
2023-08-11T14:49:43.837Z,5.13
2023-08-11T14:52:11.897Z,8.02
2023-08-11T14:54:39.018Z,4.63
2023-08-11T14:57:06.627Z,5.72
2023-08-11T14:59:33.344Z,4.55
2023-08-11T15:02:00.144Z,4.60
2023-08-11T15:04:27.819Z,4.47
2023-08-11T15:06:54.784Z,4.47
2023-08-11T15:09:21.650Z,4.63
2023-08-11T15:11:49.301Z,4.82
2023-08-11T15:14:16.732Z,4.57
2023-08-11T15:16:43.618Z,4.90
2023-08-11T15:19:10.406Z,5.53
2023-08-11T15:21:37.236Z,4.90
2023-08-11T15:24:04.121Z,9.63
2023-08-11T15:26:30.853Z,6.20
2023-08-11T15:28:58.224Z,8.88
2023-08-11T15:31:25.094Z,5.15
2023-08-11T15:33:51.865Z,5.20
2023-08-11T15:36:18.627Z,4.82
2023-08-11T15:38:45.407Z,4.60
2023-08-11T15:41:12.146Z,4.63
2023-08-11T15:43:38.876Z,4.68
2023-08-11T15:46:05.867Z,4.50
2023-08-11T15:48:33.774Z,4.10
2023-08-11T15:51:00.552Z,4.10
2023-08-11T15:53:27.366Z,6.10
2023-08-11T15:55:54.566Z,5.10
2023-08-11T15:58:21.276Z,4.40
2023-08-11T16:00:49.272Z,5.55
2023-08-11T16:03:16.508Z,6.40
2023-08-11T16:05:43.902Z,5.00
2023-08-11T16:08:10.576Z,5.10
2023-08-11T16:10:37.950Z,4.63
2023-08-11T16:13:04.885Z,5.57
2023-08-11T16:15:32.192Z,4.37
2023-08-11T16:17:58.942Z,5.32
2023-08-11T16:20:25.821Z,5.45
2023-08-11T16:22:53.150Z,4.95
2023-08-11T16:26:50.098Z,5.00
2023-08-11T16:29:16.856Z,4.70
2023-08-11T16:31:43.739Z,5.37
2023-08-11T16:34:10.632Z,5.00
2023-08-11T16:36:37.352Z,5.15
2023-08-11T16:39:04.313Z,5.28
2023-08-11T16:41:31.063Z,6.03
2023-08-11T16:43:57.876Z,5.67
2023-08-11T16:46:24.742Z,5.28
2023-08-11T16:48:51.460Z,5.97
2023-08-11T16:51:18.188Z,5.68
2023-08-11T16:53:44.912Z,6.45
2023-08-11T16:56:11.736Z,6.17
2023-08-11T16:58:38.641Z,6.63
2023-08-11T17:01:06.089Z,4.90
2023-08-11T17:03:33.165Z,6.20
2023-08-11T17:05:59.989Z,6.55
2023-08-11T17:08:26.790Z,7.47
2023-08-11T17:10:53.517Z,6.47
2023-08-11T17:13:20.284Z,7.82
2023-08-11T17:15:46.979Z,6.65
2023-08-11T17:18:13.810Z,5.60
2023-08-11T17:20:40.614Z,6.03
2023-08-11T17:23:07.543Z,6.43
2023-08-11T17:25:34.503Z,6.63
2023-08-11T17:28:01.189Z,5.70
2023-08-11T17:30:30.776Z,6.65
2023-08-11T17:32:58.740Z,6.20
2023-08-11T17:35:26.070Z,8.45
2023-08-11T17:37:53.406Z,11.18
2023-08-11T17:40:20.134Z,12.65
2023-08-11T17:42:46.865Z,11.38
2023-08-11T17:45:13.727Z,16.20
2023-08-11T17:47:42.531Z,14.27
2023-08-11T17:50:09.659Z,22.35
2023-08-11T17:52:36.396Z,16.13
2023-08-11T17:55:03.269Z,20.10
2023-08-11T17:57:30.354Z,9.80
2023-08-11T17:59:57.114Z,7.85
2023-08-11T18:02:23.847Z,5.95
2023-08-11T18:04:50.554Z,6.18
2023-08-11T18:07:17.250Z,7.05
2023-08-11T18:09:44.870Z,6.77
2023-08-11T18:12:11.977Z,5.22
2023-08-11T18:14:44.194Z,6.35
2023-08-11T18:17:10.898Z,5.80
2023-08-11T18:19:37.591Z,7.03
2023-08-11T18:22:04.441Z,9.67
2023-08-11T18:24:31.216Z,7.40
2023-08-11T18:26:57.875Z,7.85
2023-08-11T18:29:24.554Z,6.82
2023-08-11T18:31:51.467Z,7.65
2023-08-11T18:34:18.254Z,9.67
2023-08-11T18:36:45.003Z,9.45
2023-08-11T18:39:12.840Z,6.82
2023-08-11T18:41:39.532Z,10.15
2023-08-11T18:44:06.390Z,7.53
2023-08-11T18:46:35.119Z,7.30
2023-08-11T18:49:05.029Z,7.75
2023-08-11T18:51:32.004Z,6.43
2023-08-11T18:53:59.138Z,6.10
2023-08-11T18:56:25.948Z,9.05
2023-08-11T18:58:52.668Z,6.73
2023-08-11T19:01:19.498Z,6.00
2023-08-11T19:03:46.528Z,6.18
2023-08-11T19:06:14.083Z,7.47
2023-08-11T19:08:40.955Z,6.80
2023-08-11T19:11:07.672Z,6.50
2023-08-11T19:13:34.430Z,7.50
2023-08-11T19:16:01.223Z,7.25
2023-08-11T19:18:28.222Z,7.53
2023-08-11T19:20:57.773Z,8.02
2023-08-11T19:23:24.486Z,10.03
2023-08-11T19:25:51.466Z,7.03
2023-08-11T19:28:18.309Z,6.75
2023-08-11T19:30:45.052Z,8.00
2023-08-11T19:33:11.900Z,8.38
2023-08-11T19:35:38.584Z,7.40
2023-08-11T19:38:05.681Z,8.18
2023-08-11T19:40:32.407Z,8.18
2023-08-11T19:42:59.202Z,8.18
2023-08-11T19:45:25.919Z,8.25
2023-08-11T19:47:52.662Z,6.83
2023-08-11T19:50:22.880Z,7.72
2023-08-11T19:52:49.734Z,9.15
2023-08-11T19:55:16.710Z,9.07
2023-08-11T19:57:43.446Z,6.82
2023-08-11T20:00:11.007Z,8.07
2023-08-11T20:02:37.738Z,10.50
2023-08-11T20:05:04.847Z,11.20
2023-08-11T20:07:31.578Z,7.97
2023-08-11T20:09:58.268Z,6.95
2023-08-11T20:12:24.962Z,7.67
2023-08-11T20:14:51.721Z,6.95
2023-08-11T20:17:18.571Z,6.90
2023-08-11T20:19:45.379Z,7.72
2023-08-11T20:22:12.117Z,8.75
2023-08-11T20:24:38.922Z,7.03
2023-08-11T20:27:05.714Z,7.13
2023-08-11T20:29:32.425Z,8.32
2023-08-11T20:31:59.237Z,8.90
2023-08-11T20:34:27.614Z,7.85
2023-08-11T20:36:54.368Z,7.90
2023-08-11T20:39:22.855Z,10.70
2023-08-11T20:41:50.985Z,8.00
2023-08-11T20:44:17.847Z,9.25
2023-08-11T20:46:44.623Z,7.03
2023-08-11T20:49:11.414Z,10.80
2023-08-11T20:51:38.166Z,7.50
2023-08-11T20:54:05.150Z,7.75
2023-08-11T20:56:32.070Z,8.40
2023-08-11T20:58:58.842Z,8.65
2023-08-11T21:01:25.762Z,8.97
2023-08-11T21:03:52.725Z,9.15
2023-08-11T21:06:20.213Z,8.68
2023-08-11T21:08:48.629Z,10.45
2023-08-11T21:11:15.861Z,8.82
2023-08-11T21:13:42.660Z,8.13
2023-08-11T21:16:09.630Z,9.02
2023-08-11T21:18:36.382Z,8.38
2023-08-11T21:21:03.086Z,7.40
2023-08-11T21:23:29.828Z,7.45
2023-08-11T21:25:57.027Z,8.37
2023-08-11T21:28:23.802Z,10.85
2023-08-11T21:31:03.817Z,9.10
2023-08-11T21:33:34.649Z,7.82
2023-08-11T21:36:01.382Z,8.35
2023-08-11T21:38:28.156Z,8.47
2023-08-11T21:40:54.885Z,7.25
2023-08-11T21:43:21.639Z,7.80
2023-08-11T21:45:48.362Z,10.15
2023-08-11T21:48:15.218Z,8.95
2023-08-11T21:50:42.018Z,7.97
2023-08-11T21:53:22.480Z,9.85
2023-08-11T21:55:50.403Z,8.38
2023-08-11T21:58:17.125Z,7.22
2023-08-11T22:00:45.098Z,6.40
2023-08-11T22:03:12.151Z,7.13
2023-08-11T22:05:39.074Z,6.13
2023-08-11T22:08:06.116Z,6.90
2023-08-11T22:10:32.880Z,10.13
2023-08-11T22:12:59.702Z,8.95
2023-08-11T22:15:26.475Z,6.83
2023-08-11T22:17:54.804Z,7.45
2023-08-11T22:20:22.128Z,9.48
2023-08-11T22:22:48.851Z,11.20
2023-08-11T22:25:16.151Z,8.07
2023-08-11T22:27:43.183Z,9.77
2023-08-11T22:30:10.296Z,8.82
2023-08-11T22:32:37.023Z,9.48
2023-08-11T22:35:04.173Z,9.25
2023-08-11T22:37:31.092Z,9.35
2023-08-11T22:39:57.780Z,8.43
2023-08-11T22:42:26.430Z,8.63
2023-08-11T22:44:55.162Z,10.98
2023-08-11T22:47:23.451Z,11.18
2023-08-11T22:49:50.700Z,11.15
2023-08-11T22:52:18.803Z,10.63
2023-08-11T22:54:45.555Z,9.10
2023-08-11T22:57:12.495Z,8.98
2023-08-11T22:59:39.466Z,9.40
2023-08-11T23:02:06.329Z,9.10
2023-08-11T23:04:33.125Z,8.77
2023-08-11T23:06:59.856Z,9.73
2023-08-11T23:09:26.629Z,9.82
2023-08-11T23:11:54.377Z,11.18
2023-08-11T23:14:21.072Z,8.68
2023-08-11T23:16:47.760Z,9.00
2023-08-11T23:19:14.448Z,8.88
2023-08-11T23:21:41.099Z,9.15
2023-08-11T23:24:08.281Z,8.30
2023-08-11T23:26:34.964Z,9.07
2023-08-11T23:29:01.704Z,8.77
2023-08-11T23:31:28.479Z,7.97
2023-08-11T23:33:55.193Z,8.00
2023-08-11T23:36:21.859Z,9.00
2023-08-11T23:38:48.961Z,9.20
2023-08-11T23:41:15.694Z,9.27
2023-08-11T23:43:42.422Z,7.75
2023-08-11T23:46:14.676Z,8.13
2023-08-11T23:48:45.023Z,10.18
2023-08-11T23:51:11.996Z,9.18
2023-08-11T23:53:38.710Z,8.23
2023-08-11T23:56:05.446Z,7.68
2023-08-11T23:58:32.164Z,7.93
